sensor_id;sensor_type;location;lat;lon;timestamp;pressure;altitude;pressure_sealevel;temperature
18219;BMP180;9234;49.344;11.120;2023-06-04T00:01:29;97640.00;;;12.10
18219;BMP180;9234;49.344;11.120;2023-06-04T00:03:57;97648.00;;;12.10
18219;BMP180;9234;49.344;11.120;2023-06-04T00:06:26;97643.00;;;12.00
18219;BMP180;9234;49.344;11.120;2023-06-04T00:08:54;97643.00;;;12.00
18219;BMP180;9234;49.344;11.120;2023-06-04T00:11:22;97637.00;;;11.90
18219;BMP180;9234;49.344;11.120;2023-06-04T00:13:51;97633.00;;;11.90
18219;BMP180;9234;49.344;11.120;2023-06-04T00:16:20;97624.00;;;11.80
18219;BMP180;9234;49.344;11.120;2023-06-04T00:18:48;97635.00;;;11.80
18219;BMP180;9234;49.344;11.120;2023-06-04T00:21:17;97621.00;;;11.70
18219;BMP180;9234;49.344;11.120;2023-06-04T00:23:45;97625.00;;;11.60
18219;BMP180;9234;49.344;11.120;2023-06-04T00:26:14;97619.00;;;11.60
18219;BMP180;9234;49.344;11.120;2023-06-04T00:28:46;97619.00;;;11.50
18219;BMP180;9234;49.344;11.120;2023-06-04T00:31:14;97631.00;;;11.50
18219;BMP180;9234;49.344;11.120;2023-06-04T00:33:44;97608.00;;;11.40
18219;BMP180;9234;49.344;11.120;2023-06-04T00:36:12;97617.00;;;11.40
18219;BMP180;9234;49.344;11.120;2023-06-04T00:38:41;97616.00;;;11.30
18219;BMP180;9234;49.344;11.120;2023-06-04T00:41:09;97625.00;;;11.30
18219;BMP180;9234;49.344;11.120;2023-06-04T00:43:37;97623.00;;;11.30
18219;BMP180;9234;49.344;11.120;2023-06-04T00:46:06;97620.00;;;11.20
18219;BMP180;9234;49.344;11.120;2023-06-04T00:48:34;97619.00;;;11.20
18219;BMP180;9234;49.344;11.120;2023-06-04T00:51:05;97628.00;;;11.10
18219;BMP180;9234;49.344;11.120;2023-06-04T00:53:34;97622.00;;;11.10
18219;BMP180;9234;49.344;11.120;2023-06-04T00:56:03;97636.00;;;11.00
18219;BMP180;9234;49.344;11.120;2023-06-04T00:58:37;97628.00;;;11.00
18219;BMP180;9234;49.344;11.120;2023-06-04T01:01:19;97640.00;;;10.90
18219;BMP180;9234;49.344;11.120;2023-06-04T01:03:52;97640.00;;;10.90
18219;BMP180;9234;49.344;11.120;2023-06-04T01:06:34;97637.00;;;10.80
18219;BMP180;9234;49.344;11.120;2023-06-04T01:09:05;97630.00;;;10.80
18219;BMP180;9234;49.344;11.120;2023-06-04T01:11:35;97629.00;;;10.70
18219;BMP180;9234;49.344;11.120;2023-06-04T01:14:06;97620.00;;;10.70
18219;BMP180;9234;49.344;11.120;2023-06-04T01:16:39;97636.00;;;10.60
18219;BMP180;9234;49.344;11.120;2023-06-04T01:19:36;97640.00;;;10.60
18219;BMP180;9234;49.344;11.120;2023-06-04T01:22:24;97624.00;;;10.50
18219;BMP180;9234;49.344;11.120;2023-06-04T01:25:04;97623.00;;;10.50
18219;BMP180;9234;49.344;11.120;2023-06-04T01:27:35;97628.00;;;10.40
18219;BMP180;9234;49.344;11.120;2023-06-04T01:30:06;97631.00;;;10.40
18219;BMP180;9234;49.344;11.120;2023-06-04T01:32:35;97626.00;;;10.30
18219;BMP180;9234;49.344;11.120;2023-06-04T01:35:08;97623.00;;;10.30
18219;BMP180;9234;49.344;11.120;2023-06-04T01:37:38;97625.00;;;10.20
18219;BMP180;9234;49.344;11.120;2023-06-04T01:40:07;97628.00;;;10.20
18219;BMP180;9234;49.344;11.120;2023-06-04T01:42:36;97634.00;;;10.20
18219;BMP180;9234;49.344;11.120;2023-06-04T01:45:05;97628.00;;;10.10
18219;BMP180;9234;49.344;11.120;2023-06-04T01:47:34;97630.00;;;10.10
18219;BMP180;9234;49.344;11.120;2023-06-04T01:50:04;97627.00;;;10.00
18219;BMP180;9234;49.344;11.120;2023-06-04T01:52:38;97633.00;;;10.00
18219;BMP180;9234;49.344;11.120;2023-06-04T01:55:09;97644.00;;;10.00
18219;BMP180;9234;49.344;11.120;2023-06-04T01:57:39;97642.00;;;9.90
18219;BMP180;9234;49.344;11.120;2023-06-04T02:00:11;97641.00;;;9.90
18219;BMP180;9234;49.344;11.120;2023-06-04T02:02:42;97645.00;;;9.80
18219;BMP180;9234;49.344;11.120;2023-06-04T02:05:11;97642.00;;;9.70
18219;BMP180;9234;49.344;11.120;2023-06-04T02:07:43;97645.00;;;9.70
18219;BMP180;9234;49.344;11.120;2023-06-04T02:10:13;97637.00;;;9.60
18219;BMP180;9234;49.344;11.120;2023-06-04T02:12:54;97652.00;;;9.60
18219;BMP180;9234;49.344;11.120;2023-06-04T02:15:24;97655.00;;;9.50
18219;BMP180;9234;49.344;11.120;2023-06-04T02:17:57;97649.00;;;9.50
18219;BMP180;9234;49.344;11.120;2023-06-04T02:20:27;97659.00;;;9.40
18219;BMP180;9234;49.344;11.120;2023-06-04T02:22:57;97655.00;;;9.40
18219;BMP180;9234;49.344;11.120;2023-06-04T02:25:26;97658.00;;;9.40
18219;BMP180;9234;49.344;11.120;2023-06-04T02:27:54;97647.00;;;9.30
18219;BMP180;9234;49.344;11.120;2023-06-04T02:30:22;97657.00;;;9.30
18219;BMP180;9234;49.344;11.120;2023-06-04T02:32:51;97649.00;;;9.20
18219;BMP180;9234;49.344;11.120;2023-06-04T02:35:22;97655.00;;;9.20
18219;BMP180;9234;49.344;11.120;2023-06-04T02:37:51;97656.00;;;9.20
18219;BMP180;9234;49.344;11.120;2023-06-04T02:40:21;97649.00;;;9.10
18219;BMP180;9234;49.344;11.120;2023-06-04T02:42:49;97663.00;;;9.10
18219;BMP180;9234;49.344;11.120;2023-06-04T02:45:18;97664.00;;;9.10
18219;BMP180;9234;49.344;11.120;2023-06-04T02:47:46;97655.00;;;9.00
18219;BMP180;9234;49.344;11.120;2023-06-04T02:50:15;97666.00;;;9.00
18219;BMP180;9234;49.344;11.120;2023-06-04T02:52:44;97664.00;;;9.00
18219;BMP180;9234;49.344;11.120;2023-06-04T02:55:12;97656.00;;;9.00
18219;BMP180;9234;49.344;11.120;2023-06-04T02:57:42;97652.00;;;8.90
18219;BMP180;9234;49.344;11.120;2023-06-04T03:00:13;97653.00;;;8.90
18219;BMP180;9234;49.344;11.120;2023-06-04T03:02:43;97663.00;;;8.80
18219;BMP180;9234;49.344;11.120;2023-06-04T03:05:15;97668.00;;;8.80
18219;BMP180;9234;49.344;11.120;2023-06-04T03:07:46;97665.00;;;8.70
18219;BMP180;9234;49.344;11.120;2023-06-04T03:10:15;97646.00;;;8.70
18219;BMP180;9234;49.344;11.120;2023-06-04T03:12:45;97666.00;;;8.70
18219;BMP180;9234;49.344;11.120;2023-06-04T03:15:14;97665.00;;;8.70
18219;BMP180;9234;49.344;11.120;2023-06-04T03:17:42;97661.00;;;8.60
18219;BMP180;9234;49.344;11.120;2023-06-04T03:20:11;97664.00;;;8.60
18219;BMP180;9234;49.344;11.120;2023-06-04T03:22:40;97655.00;;;8.60
18219;BMP180;9234;49.344;11.120;2023-06-04T03:25:09;97659.00;;;8.50
18219;BMP180;9234;49.344;11.120;2023-06-04T03:27:37;97675.00;;;8.50
18219;BMP180;9234;49.344;11.120;2023-06-04T03:30:09;97663.00;;;8.50
18219;BMP180;9234;49.344;11.120;2023-06-04T03:32:48;97677.00;;;8.50
18219;BMP180;9234;49.344;11.120;2023-06-04T03:35:16;97668.00;;;8.50
18219;BMP180;9234;49.344;11.120;2023-06-04T03:37:44;97673.00;;;8.50
18219;BMP180;9234;49.344;11.120;2023-06-04T03:40:14;97683.00;;;8.50
18219;BMP180;9234;49.344;11.120;2023-06-04T03:42:44;97698.00;;;8.50
18219;BMP180;9234;49.344;11.120;2023-06-04T03:45:16;97680.00;;;8.50
18219;BMP180;9234;49.344;11.120;2023-06-04T03:47:45;97688.00;;;8.50
18219;BMP180;9234;49.344;11.120;2023-06-04T03:50:14;97686.00;;;8.50
18219;BMP180;9234;49.344;11.120;2023-06-04T03:52:42;97682.00;;;8.50
18219;BMP180;9234;49.344;11.120;2023-06-04T03:55:11;97672.00;;;8.50
18219;BMP180;9234;49.344;11.120;2023-06-04T03:57:40;97688.00;;;8.50
18219;BMP180;9234;49.344;11.120;2023-06-04T04:00:11;97687.00;;;8.50
18219;BMP180;9234;49.344;11.120;2023-06-04T04:02:42;97683.00;;;8.50
18219;BMP180;9234;49.344;11.120;2023-06-04T04:05:20;97687.00;;;8.50
18219;BMP180;9234;49.344;11.120;2023-06-04T04:07:50;97681.00;;;8.50
18219;BMP180;9234;49.344;11.120;2023-06-04T04:10:22;97690.00;;;8.50
18219;BMP180;9234;49.344;11.120;2023-06-04T04:12:50;97690.00;;;8.60
18219;BMP180;9234;49.344;11.120;2023-06-04T04:15:22;97680.00;;;8.60
18219;BMP180;9234;49.344;11.120;2023-06-04T04:17:54;97672.00;;;8.60
18219;BMP180;9234;49.344;11.120;2023-06-04T04:20:23;97691.00;;;8.60
18219;BMP180;9234;49.344;11.120;2023-06-04T04:22:57;97683.00;;;8.70
18219;BMP180;9234;49.344;11.120;2023-06-04T04:25:27;97676.00;;;8.80
18219;BMP180;9234;49.344;11.120;2023-06-04T04:27:55;97686.00;;;8.80
18219;BMP180;9234;49.344;11.120;2023-06-04T04:30:27;97700.00;;;8.90
18219;BMP180;9234;49.344;11.120;2023-06-04T04:32:57;97699.00;;;9.00
18219;BMP180;9234;49.344;11.120;2023-06-04T04:35:33;97691.00;;;9.00
18219;BMP180;9234;49.344;11.120;2023-06-04T04:38:03;97689.00;;;9.10
18219;BMP180;9234;49.344;11.120;2023-06-04T04:40:37;97690.00;;;9.20
18219;BMP180;9234;49.344;11.120;2023-06-04T04:43:07;97688.00;;;9.30
18219;BMP180;9234;49.344;11.120;2023-06-04T04:45:36;97683.00;;;9.30
18219;BMP180;9234;49.344;11.120;2023-06-04T04:48:08;97702.00;;;9.40
18219;BMP180;9234;49.344;11.120;2023-06-04T04:50:36;97701.00;;;9.50
18219;BMP180;9234;49.344;11.120;2023-06-04T04:53:05;97701.00;;;9.60
18219;BMP180;9234;49.344;11.120;2023-06-04T04:55:35;97699.00;;;9.70
18219;BMP180;9234;49.344;11.120;2023-06-04T04:58:03;97682.00;;;9.70
18219;BMP180;9234;49.344;11.120;2023-06-04T05:00:33;97702.00;;;9.80
18219;BMP180;9234;49.344;11.120;2023-06-04T05:03:02;97714.00;;;9.90
18219;BMP180;9234;49.344;11.120;2023-06-04T05:05:32;97709.00;;;10.00
18219;BMP180;9234;49.344;11.120;2023-06-04T05:08:02;97700.00;;;10.10
18219;BMP180;9234;49.344;11.120;2023-06-04T05:10:35;97716.00;;;10.20
18219;BMP180;9234;49.344;11.120;2023-06-04T05:13:05;97710.00;;;10.30
18219;BMP180;9234;49.344;11.120;2023-06-04T05:15:42;97714.00;;;10.40
18219;BMP180;9234;49.344;11.120;2023-06-04T05:18:15;97710.00;;;10.50
18219;BMP180;9234;49.344;11.120;2023-06-04T05:20:45;97709.00;;;10.60
18219;BMP180;9234;49.344;11.120;2023-06-04T05:23:14;97719.00;;;10.80
18219;BMP180;9234;49.344;11.120;2023-06-04T05:25:45;97725.00;;;10.90
18219;BMP180;9234;49.344;11.120;2023-06-04T05:28:16;97718.00;;;11.00
18219;BMP180;9234;49.344;11.120;2023-06-04T05:30:45;97729.00;;;11.20
18219;BMP180;9234;49.344;11.120;2023-06-04T05:33:16;97728.00;;;11.40
18219;BMP180;9234;49.344;11.120;2023-06-04T05:36:00;97727.00;;;11.50
18219;BMP180;9234;49.344;11.120;2023-06-04T05:38:33;97741.00;;;11.70
18219;BMP180;9234;49.344;11.120;2023-06-04T05:41:06;97734.00;;;11.90
18219;BMP180;9234;49.344;11.120;2023-06-04T05:43:37;97735.00;;;12.00
18219;BMP180;9234;49.344;11.120;2023-06-04T05:46:07;97724.00;;;12.20
18219;BMP180;9234;49.344;11.120;2023-06-04T05:48:38;97737.00;;;12.40
18219;BMP180;9234;49.344;11.120;2023-06-04T05:51:08;97735.00;;;12.50
18219;BMP180;9234;49.344;11.120;2023-06-04T05:53:38;97733.00;;;12.70
18219;BMP180;9234;49.344;11.120;2023-06-04T05:56:07;97720.00;;;12.80
18219;BMP180;9234;49.344;11.120;2023-06-04T05:58:35;97721.00;;;13.00
18219;BMP180;9234;49.344;11.120;2023-06-04T06:01:05;97736.00;;;13.10
18219;BMP180;9234;49.344;11.120;2023-06-04T06:03:34;97723.00;;;13.30
18219;BMP180;9234;49.344;11.120;2023-06-04T06:06:03;97733.00;;;13.40
18219;BMP180;9234;49.344;11.120;2023-06-04T06:08:34;97726.00;;;13.60
18219;BMP180;9234;49.344;11.120;2023-06-04T06:11:02;97736.00;;;13.70
18219;BMP180;9234;49.344;11.120;2023-06-04T06:13:36;97739.00;;;13.90
18219;BMP180;9234;49.344;11.120;2023-06-04T06:16:04;97737.00;;;14.10
18219;BMP180;9234;49.344;11.120;2023-06-04T06:18:33;97737.00;;;14.20
18219;BMP180;9234;49.344;11.120;2023-06-04T06:21:02;97744.00;;;14.40
18219;BMP180;9234;49.344;11.120;2023-06-04T06:23:30;97737.00;;;14.50
18219;BMP180;9234;49.344;11.120;2023-06-04T06:26:01;97739.00;;;14.70
18219;BMP180;9234;49.344;11.120;2023-06-04T06:28:32;97742.00;;;14.90
18219;BMP180;9234;49.344;11.120;2023-06-04T06:31:01;97747.00;;;15.00
18219;BMP180;9234;49.344;11.120;2023-06-04T06:33:30;97750.00;;;15.20
18219;BMP180;9234;49.344;11.120;2023-06-04T06:35:58;97740.00;;;15.30
18219;BMP180;9234;49.344;11.120;2023-06-04T06:38:27;97739.00;;;15.50
18219;BMP180;9234;49.344;11.120;2023-06-04T06:40:55;97749.00;;;15.60
18219;BMP180;9234;49.344;11.120;2023-06-04T06:43:25;97750.00;;;15.80
18219;BMP180;9234;49.344;11.120;2023-06-04T06:45:53;97747.00;;;15.90
18219;BMP180;9234;49.344;11.120;2023-06-04T06:48:24;97759.00;;;16.10
18219;BMP180;9234;49.344;11.120;2023-06-04T06:50:54;97755.00;;;16.20
18219;BMP180;9234;49.344;11.120;2023-06-04T06:53:22;97767.00;;;16.30
18219;BMP180;9234;49.344;11.120;2023-06-04T06:55:51;97756.00;;;16.50
18219;BMP180;9234;49.344;11.120;2023-06-04T06:58:19;97759.00;;;16.60
18219;BMP180;9234;49.344;11.120;2023-06-04T07:00:48;97767.00;;;16.70
18219;BMP180;9234;49.344;11.120;2023-06-04T07:03:17;97758.00;;;16.90
18219;BMP180;9234;49.344;11.120;2023-06-04T07:05:45;97760.00;;;17.00
18219;BMP180;9234;49.344;11.120;2023-06-04T07:08:14;97771.00;;;17.10
18219;BMP180;9234;49.344;11.120;2023-06-04T07:10:43;97768.00;;;17.30
18219;BMP180;9234;49.344;11.120;2023-06-04T07:13:11;97772.00;;;17.40
18219;BMP180;9234;49.344;11.120;2023-06-04T07:15:40;97761.00;;;17.50
18219;BMP180;9234;49.344;11.120;2023-06-04T07:18:09;97762.00;;;17.60
18219;BMP180;9234;49.344;11.120;2023-06-04T07:20:37;97756.00;;;17.70
18219;BMP180;9234;49.344;11.120;2023-06-04T07:23:06;97771.00;;;17.90
18219;BMP180;9234;49.344;11.120;2023-06-04T07:25:34;97767.00;;;18.00
18219;BMP180;9234;49.344;11.120;2023-06-04T07:28:03;97767.00;;;18.20
18219;BMP180;9234;49.344;11.120;2023-06-04T07:30:32;97746.00;;;18.30
18219;BMP180;9234;49.344;11.120;2023-06-04T07:33:00;97753.00;;;18.50
18219;BMP180;9234;49.344;11.120;2023-06-04T07:35:30;97743.00;;;18.60
18219;BMP180;9234;49.344;11.120;2023-06-04T07:37:58;97750.00;;;18.80
18219;BMP180;9234;49.344;11.120;2023-06-04T07:40:26;97752.00;;;19.00
18219;BMP180;9234;49.344;11.120;2023-06-04T07:42:55;97751.00;;;19.10
18219;BMP180;9234;49.344;11.120;2023-06-04T07:45:23;97756.00;;;19.20
18219;BMP180;9234;49.344;11.120;2023-06-04T07:47:54;97753.00;;;19.40
18219;BMP180;9234;49.344;11.120;2023-06-04T07:50:23;97751.00;;;19.60
18219;BMP180;9234;49.344;11.120;2023-06-04T07:52:53;97748.00;;;19.80
18219;BMP180;9234;49.344;11.120;2023-06-04T07:55:22;97760.00;;;19.90
18219;BMP180;9234;49.344;11.120;2023-06-04T07:57:50;97739.00;;;20.10
18219;BMP180;9234;49.344;11.120;2023-06-04T08:00:19;97746.00;;;20.20
18219;BMP180;9234;49.344;11.120;2023-06-04T08:02:47;97758.00;;;20.30
18219;BMP180;9234;49.344;11.120;2023-06-04T08:05:17;97751.00;;;20.50
18219;BMP180;9234;49.344;11.120;2023-06-04T08:07:46;97747.00;;;20.60
18219;BMP180;9234;49.344;11.120;2023-06-04T08:10:16;97746.00;;;20.70
18219;BMP180;9234;49.344;11.120;2023-06-04T08:12:45;97740.00;;;20.90
18219;BMP180;9234;49.344;11.120;2023-06-04T08:15:13;97742.00;;;21.10
18219;BMP180;9234;49.344;11.120;2023-06-04T08:17:42;97745.00;;;21.30
18219;BMP180;9234;49.344;11.120;2023-06-04T08:20:10;97736.00;;;21.40
18219;BMP180;9234;49.344;11.120;2023-06-04T08:22:38;97741.00;;;21.60
18219;BMP180;9234;49.344;11.120;2023-06-04T08:25:08;97743.00;;;21.70
18219;BMP180;9234;49.344;11.120;2023-06-04T08:27:38;97744.00;;;21.90
18219;BMP180;9234;49.344;11.120;2023-06-04T08:30:08;97739.00;;;22.00
18219;BMP180;9234;49.344;11.120;2023-06-04T08:32:36;97752.00;;;22.20
18219;BMP180;9234;49.344;11.120;2023-06-04T08:35:06;97746.00;;;22.40
18219;BMP180;9234;49.344;11.120;2023-06-04T08:37:35;97744.00;;;22.60
18219;BMP180;9234;49.344;11.120;2023-06-04T08:40:06;97760.00;;;22.70
18219;BMP180;9234;49.344;11.120;2023-06-04T08:42:41;97747.00;;;22.90
18219;BMP180;9234;49.344;11.120;2023-06-04T08:45:13;97741.00;;;23.00
18219;BMP180;9234;49.344;11.120;2023-06-04T08:47:49;97738.00;;;23.10
18219;BMP180;9234;49.344;11.120;2023-06-04T08:50:20;97742.00;;;23.20
18219;BMP180;9234;49.344;11.120;2023-06-04T08:52:53;97740.00;;;23.40
18219;BMP180;9234;49.344;11.120;2023-06-04T08:55:22;97740.00;;;23.60
18219;BMP180;9234;49.344;11.120;2023-06-04T08:57:53;97749.00;;;23.80
18219;BMP180;9234;49.344;11.120;2023-06-04T09:00:21;97750.00;;;24.10
18219;BMP180;9234;49.344;11.120;2023-06-04T09:02:50;97742.00;;;24.40
18219;BMP180;9234;49.344;11.120;2023-06-04T09:05:21;97739.00;;;24.60
18219;BMP180;9234;49.344;11.120;2023-06-04T09:07:53;97741.00;;;24.90
18219;BMP180;9234;49.344;11.120;2023-06-04T09:10:24;97751.00;;;25.20
18219;BMP180;9234;49.344;11.120;2023-06-04T09:12:57;97750.00;;;25.30
18219;BMP180;9234;49.344;11.120;2023-06-04T09:15:29;97758.00;;;25.40
18219;BMP180;9234;49.344;11.120;2023-06-04T09:17:57;97753.00;;;25.40
18219;BMP180;9234;49.344;11.120;2023-06-04T09:20:27;97748.00;;;25.40
18219;BMP180;9234;49.344;11.120;2023-06-04T09:22:55;97748.00;;;25.50
18219;BMP180;9234;49.344;11.120;2023-06-04T09:25:26;97747.00;;;25.70
18219;BMP180;9234;49.344;11.120;2023-06-04T09:28:05;97751.00;;;25.70
18219;BMP180;9234;49.344;11.120;2023-06-04T09:30:34;97743.00;;;25.90
18219;BMP180;9234;49.344;11.120;2023-06-04T09:33:07;97743.00;;;25.90
18219;BMP180;9234;49.344;11.120;2023-06-04T09:35:35;97748.00;;;26.00
18219;BMP180;9234;49.344;11.120;2023-06-04T09:38:05;97742.00;;;26.10
18219;BMP180;9234;49.344;11.120;2023-06-04T09:40:38;97743.00;;;26.30
18219;BMP180;9234;49.344;11.120;2023-06-04T09:43:10;97738.00;;;26.40
18219;BMP180;9234;49.344;11.120;2023-06-04T09:45:38;97756.00;;;26.50
18219;BMP180;9234;49.344;11.120;2023-06-04T09:48:07;97753.00;;;26.60
18219;BMP180;9234;49.344;11.120;2023-06-04T09:50:36;97742.00;;;26.70
18219;BMP180;9234;49.344;11.120;2023-06-04T09:53:13;97737.00;;;26.90
18219;BMP180;9234;49.344;11.120;2023-06-04T09:55:43;97748.00;;;27.00
18219;BMP180;9234;49.344;11.120;2023-06-04T09:58:13;97736.00;;;27.10
18219;BMP180;9234;49.344;11.120;2023-06-04T10:00:45;97728.00;;;27.30
18219;BMP180;9234;49.344;11.120;2023-06-04T10:03:15;97726.00;;;27.50
18219;BMP180;9234;49.344;11.120;2023-06-04T10:05:45;97723.00;;;27.70
18219;BMP180;9234;49.344;11.120;2023-06-04T10:08:17;97733.00;;;27.90
18219;BMP180;9234;49.344;11.120;2023-06-04T10:10:49;97728.00;;;28.00
18219;BMP180;9234;49.344;11.120;2023-06-04T10:13:23;97734.00;;;28.20
18219;BMP180;9234;49.344;11.120;2023-06-04T10:15:54;97730.00;;;28.10
18219;BMP180;9234;49.344;11.120;2023-06-04T10:18:27;97733.00;;;28.10
18219;BMP180;9234;49.344;11.120;2023-06-04T10:20:57;97732.00;;;28.10
18219;BMP180;9234;49.344;11.120;2023-06-04T10:23:26;97715.00;;;28.20
18219;BMP180;9234;49.344;11.120;2023-06-04T10:25:57;97717.00;;;28.20
18219;BMP180;9234;49.344;11.120;2023-06-04T10:28:27;97724.00;;;28.50
18219;BMP180;9234;49.344;11.120;2023-06-04T10:30:56;97715.00;;;28.80
18219;BMP180;9234;49.344;11.120;2023-06-04T10:33:24;97724.00;;;29.00
18219;BMP180;9234;49.344;11.120;2023-06-04T10:35:54;97722.00;;;29.20
18219;BMP180;9234;49.344;11.120;2023-06-04T10:38:24;97707.00;;;29.10
18219;BMP180;9234;49.344;11.120;2023-06-04T10:40:53;97717.00;;;28.90
18219;BMP180;9234;49.344;11.120;2023-06-04T10:43:21;97726.00;;;28.80
18219;BMP180;9234;49.344;11.120;2023-06-04T10:45:51;97728.00;;;28.80
18219;BMP180;9234;49.344;11.120;2023-06-04T10:48:19;97718.00;;;29.10
18219;BMP180;9234;49.344;11.120;2023-06-04T10:50:49;97727.00;;;29.40
18219;BMP180;9234;49.344;11.120;2023-06-04T10:53:18;97724.00;;;29.80
18219;BMP180;9234;49.344;11.120;2023-06-04T10:55:49;97715.00;;;30.10
18219;BMP180;9234;49.344;11.120;2023-06-04T10:58:17;97708.00;;;30.20
18219;BMP180;9234;49.344;11.120;2023-06-04T11:00:47;97708.00;;;30.40
18219;BMP180;9234;49.344;11.120;2023-06-04T11:03:18;97711.00;;;30.30
18219;BMP180;9234;49.344;11.120;2023-06-04T11:05:48;97703.00;;;30.50
18219;BMP180;9234;49.344;11.120;2023-06-04T11:08:28;97708.00;;;30.70
18219;BMP180;9234;49.344;11.120;2023-06-04T11:10:57;97710.00;;;31.10
18219;BMP180;9234;49.344;11.120;2023-06-04T11:13:25;97702.00;;;31.40
18219;BMP180;9234;49.344;11.120;2023-06-04T11:15:54;97696.00;;;31.70
18219;BMP180;9234;49.344;11.120;2023-06-04T11:18:24;97699.00;;;31.90
18219;BMP180;9234;49.344;11.120;2023-06-04T11:21:00;97706.00;;;32.00
18219;BMP180;9234;49.344;11.120;2023-06-04T11:23:29;97703.00;;;31.90
18219;BMP180;9234;49.344;11.120;2023-06-04T11:25:58;97693.00;;;31.80
18219;BMP180;9234;49.344;11.120;2023-06-04T11:28:27;97708.00;;;31.70
18219;BMP180;9234;49.344;11.120;2023-06-04T11:30:58;97690.00;;;31.80
18219;BMP180;9234;49.344;11.120;2023-06-04T11:33:41;97693.00;;;31.70
18219;BMP180;9234;49.344;11.120;2023-06-04T11:36:10;97700.00;;;31.40
18219;BMP180;9234;49.344;11.120;2023-06-04T11:38:38;97699.00;;;31.20
18219;BMP180;9234;49.344;11.120;2023-06-04T11:41:07;97692.00;;;31.40
18219;BMP180;9234;49.344;11.120;2023-06-04T11:43:35;97689.00;;;31.80
18219;BMP180;9234;49.344;11.120;2023-06-04T11:46:06;97686.00;;;32.00
18219;BMP180;9234;49.344;11.120;2023-06-04T11:48:39;97686.00;;;31.90
18219;BMP180;9234;49.344;11.120;2023-06-04T11:51:07;97690.00;;;32.00
18219;BMP180;9234;49.344;11.120;2023-06-04T11:53:37;97685.00;;;32.00
18219;BMP180;9234;49.344;11.120;2023-06-04T11:56:06;97693.00;;;32.00
18219;BMP180;9234;49.344;11.120;2023-06-04T11:58:35;97683.00;;;32.00
18219;BMP180;9234;49.344;11.120;2023-06-04T12:01:03;97689.00;;;32.10
18219;BMP180;9234;49.344;11.120;2023-06-04T12:03:35;97680.00;;;32.40
18219;BMP180;9234;49.344;11.120;2023-06-04T12:06:17;97689.00;;;32.60
18219;BMP180;9234;49.344;11.120;2023-06-04T12:08:51;97686.00;;;32.80
18219;BMP180;9234;49.344;11.120;2023-06-04T12:11:28;97674.00;;;32.90
18219;BMP180;9234;49.344;11.120;2023-06-04T12:14:00;97675.00;;;33.00
18219;BMP180;9234;49.344;11.120;2023-06-04T12:16:28;97684.00;;;33.10
18219;BMP180;9234;49.344;11.120;2023-06-04T12:19:07;97688.00;;;33.30
18219;BMP180;9234;49.344;11.120;2023-06-04T12:21:39;97685.00;;;33.30
18219;BMP180;9234;49.344;11.120;2023-06-04T12:24:10;97680.00;;;33.20
18219;BMP180;9234;49.344;11.120;2023-06-04T12:26:40;97682.00;;;33.20
18219;BMP180;9234;49.344;11.120;2023-06-04T12:29:10;97690.00;;;33.40
18219;BMP180;9234;49.344;11.120;2023-06-04T12:31:40;97695.00;;;33.40
18219;BMP180;9234;49.344;11.120;2023-06-04T12:34:09;97680.00;;;33.10
18219;BMP180;9234;49.344;11.120;2023-06-04T12:36:40;97680.00;;;32.90
18219;BMP180;9234;49.344;11.120;2023-06-04T12:39:09;97675.00;;;33.00
18219;BMP180;9234;49.344;11.120;2023-06-04T12:41:38;97673.00;;;33.30
18219;BMP180;9234;49.344;11.120;2023-06-04T12:44:12;97669.00;;;33.50
18219;BMP180;9234;49.344;11.120;2023-06-04T12:46:40;97677.00;;;33.70
18219;BMP180;9234;49.344;11.120;2023-06-04T12:49:09;97673.00;;;34.10
18219;BMP180;9234;49.344;11.120;2023-06-04T12:51:38;97667.00;;;34.30
18219;BMP180;9234;49.344;11.120;2023-06-04T12:54:06;97657.00;;;34.60
18219;BMP180;9234;49.344;11.120;2023-06-04T12:56:35;97669.00;;;34.80
18219;BMP180;9234;49.344;11.120;2023-06-04T12:59:05;97665.00;;;35.00
18219;BMP180;9234;49.344;11.120;2023-06-04T13:01:34;97674.00;;;35.30
18219;BMP180;9234;49.344;11.120;2023-06-04T13:04:04;97664.00;;;35.80
18219;BMP180;9234;49.344;11.120;2023-06-04T13:06:35;97656.00;;;36.40
18219;BMP180;9234;49.344;11.120;2023-06-04T13:09:06;97666.00;;;36.90
18219;BMP180;9234;49.344;11.120;2023-06-04T13:11:38;97668.00;;;37.00
18219;BMP180;9234;49.344;11.120;2023-06-04T13:14:07;97667.00;;;37.40
18219;BMP180;9234;49.344;11.120;2023-06-04T13:16:37;97671.00;;;38.10
18219;BMP180;9234;49.344;11.120;2023-06-04T13:19:06;97667.00;;;38.50
18219;BMP180;9234;49.344;11.120;2023-06-04T13:21:35;97670.00;;;38.30
18219;BMP180;9234;49.344;11.120;2023-06-04T13:24:05;97659.00;;;38.20
18219;BMP180;9234;49.344;11.120;2023-06-04T13:26:34;97662.00;;;38.30
18219;BMP180;9234;49.344;11.120;2023-06-04T13:29:02;97661.00;;;38.50
18219;BMP180;9234;49.344;11.120;2023-06-04T13:31:31;97666.00;;;38.90
18219;BMP180;9234;49.344;11.120;2023-06-04T13:33:59;97652.00;;;39.30
18219;BMP180;9234;49.344;11.120;2023-06-04T13:36:41;97664.00;;;39.80
18219;BMP180;9234;49.344;11.120;2023-06-04T13:39:10;97669.00;;;40.20
18219;BMP180;9234;49.344;11.120;2023-06-04T13:41:38;97662.00;;;40.00
18219;BMP180;9234;49.344;11.120;2023-06-04T13:44:07;97660.00;;;39.80
18219;BMP180;9234;49.344;11.120;2023-06-04T13:46:35;97657.00;;;40.00
18219;BMP180;9234;49.344;11.120;2023-06-04T13:49:03;97656.00;;;39.90
18219;BMP180;9234;49.344;11.120;2023-06-04T13:51:32;97659.00;;;39.70
18219;BMP180;9234;49.344;11.120;2023-06-04T13:54:00;97658.00;;;39.70
18219;BMP180;9234;49.344;11.120;2023-06-04T13:56:30;97651.00;;;39.70
18219;BMP180;9234;49.344;11.120;2023-06-04T13:58:58;97648.00;;;39.60
18219;BMP180;9234;49.344;11.120;2023-06-04T14:01:27;97650.00;;;39.60
18219;BMP180;9234;49.344;11.120;2023-06-04T14:03:55;97644.00;;;39.60
18219;BMP180;9234;49.344;11.120;2023-06-04T14:06:25;97647.00;;;39.60
18219;BMP180;9234;49.344;11.120;2023-06-04T14:08:54;97655.00;;;39.40
18219;BMP180;9234;49.344;11.120;2023-06-04T14:11:22;97648.00;;;39.00
18219;BMP180;9234;49.344;11.120;2023-06-04T14:13:52;97645.00;;;39.20
18219;BMP180;9234;49.344;11.120;2023-06-04T14:16:20;97646.00;;;39.80
18219;BMP180;9234;49.344;11.120;2023-06-04T14:18:48;97643.00;;;40.20
18219;BMP180;9234;49.344;11.120;2023-06-04T14:21:17;97647.00;;;40.30
18219;BMP180;9234;49.344;11.120;2023-06-04T14:23:45;97641.00;;;40.50
18219;BMP180;9234;49.344;11.120;2023-06-04T14:26:13;97648.00;;;40.90
18219;BMP180;9234;49.344;11.120;2023-06-04T14:28:44;97642.00;;;41.40